createdAt,value
2023-01-19T00:00:54.781Z,33.72
2023-01-19T00:03:28.015Z,33.22
2023-01-19T00:05:54.909Z,33.10
2023-01-19T00:08:22.085Z,33.22
2023-01-19T00:10:53.217Z,33.65
2023-01-19T00:13:20.777Z,32.63
2023-01-19T00:15:47.552Z,31.63
2023-01-19T00:18:14.975Z,31.58
2023-01-19T00:20:42.128Z,29.15
2023-01-19T00:23:09.530Z,26.42
2023-01-19T00:25:42.476Z,26.85
2023-01-19T00:28:15.587Z,28.90
2023-01-19T00:30:43.054Z,27.90
2023-01-19T00:33:13.866Z,28.33
2023-01-19T00:35:42.745Z,29.30
2023-01-19T00:38:11.883Z,30.55
2023-01-19T00:40:38.773Z,29.08
2023-01-19T00:43:05.861Z,29.38
2023-01-19T00:45:33.684Z,31.58
2023-01-19T00:48:01.159Z,30.10
2023-01-19T00:50:30.097Z,31.25
2023-01-19T00:53:01.091Z,28.92
2023-01-19T00:55:29.593Z,26.95
2023-01-19T00:57:57.339Z,27.40
2023-01-19T01:00:25.218Z,26.15
2023-01-19T01:02:53.691Z,24.73
2023-01-19T01:05:21.771Z,23.73
2023-01-19T01:07:49.859Z,24.88
2023-01-19T01:10:18.544Z,25.05
2023-01-19T01:12:56.373Z,21.08
2023-01-19T01:15:28.025Z,21.90
2023-01-19T01:17:55.558Z,21.10
2023-01-19T01:20:25.383Z,21.20
2023-01-19T01:22:54.101Z,22.13
2023-01-19T01:25:23.212Z,22.48
2023-01-19T01:27:51.066Z,21.73
2023-01-19T01:30:18.546Z,21.00
2023-01-19T01:32:45.739Z,20.13
2023-01-19T01:35:13.768Z,20.55
2023-01-19T01:37:41.188Z,21.08
2023-01-19T01:40:09.099Z,21.27
2023-01-19T01:42:36.335Z,21.40
2023-01-19T01:45:07.726Z,22.20
2023-01-19T01:47:45.767Z,22.65
2023-01-19T01:50:27.739Z,21.95
2023-01-19T01:53:13.858Z,20.08
2023-01-19T01:55:47.168Z,19.98
2023-01-19T01:58:16.388Z,19.50
2023-01-19T02:01:02.038Z,21.70
2023-01-19T02:03:29.678Z,20.45
2023-01-19T02:06:00.597Z,20.75
2023-01-19T02:08:48.953Z,21.33
2023-01-19T02:11:35.468Z,21.17
2023-01-19T02:14:05.273Z,19.67
2023-01-19T02:16:32.690Z,19.67
2023-01-19T02:19:01.224Z,19.65
2023-01-19T02:22:07.791Z,21.05
2023-01-19T02:24:35.989Z,19.58
2023-01-19T02:27:04.834Z,19.70
2023-01-19T02:29:33.004Z,21.58
2023-01-19T02:32:00.859Z,20.77
2023-01-19T02:34:28.341Z,19.83
2023-01-19T02:37:11.485Z,20.65
2023-01-19T02:39:44.820Z,20.20
2023-01-19T02:42:37.606Z,20.75
2023-01-19T02:45:06.973Z,20.75
2023-01-19T02:47:45.088Z,20.58
2023-01-19T02:50:46.050Z,20.42
2023-01-19T02:53:31.153Z,19.95
2023-01-19T02:56:07.330Z,19.63
2023-01-19T02:58:48.895Z,20.25
2023-01-19T03:01:32.573Z,20.45
2023-01-19T03:04:23.719Z,19.80
2023-01-19T03:07:09.181Z,19.52
2023-01-19T03:09:54.662Z,20.85
2023-01-19T03:12:30.781Z,20.75
2023-01-19T03:15:01.788Z,19.75
2023-01-19T03:17:31.595Z,19.65
2023-01-19T03:19:58.599Z,19.60
2023-01-19T03:22:29.337Z,19.73
2023-01-19T03:25:00.510Z,21.50
2023-01-19T03:27:31.323Z,18.73
2023-01-19T03:30:03.202Z,19.77
2023-01-19T03:32:47.221Z,21.00
2023-01-19T03:35:18.047Z,19.48
2023-01-19T03:37:50.741Z,20.50
2023-01-19T03:40:17.857Z,19.70
2023-01-19T03:42:45.490Z,19.25
2023-01-19T03:45:13.934Z,19.95
2023-01-19T03:47:41.426Z,19.33
2023-01-19T03:50:14.571Z,20.90
2023-01-19T03:52:41.756Z,19.48
2023-01-19T03:55:10.061Z,20.42
2023-01-19T03:57:37.611Z,20.10
2023-01-19T04:00:05.174Z,21.58
2023-01-19T04:02:32.309Z,22.35
2023-01-19T04:04:59.132Z,21.67
2023-01-19T04:07:26.603Z,19.70
2023-01-19T04:09:53.425Z,20.25
2023-01-19T04:12:20.854Z,20.45
2023-01-19T04:14:47.749Z,20.83
2023-01-19T04:17:16.130Z,20.83
2023-01-19T04:19:43.709Z,20.70
2023-01-19T04:22:10.921Z,21.67
2023-01-19T04:24:37.771Z,19.15
2023-01-19T04:27:04.964Z,21.02
2023-01-19T04:29:31.835Z,20.85
2023-01-19T04:31:59.677Z,22.20
2023-01-19T04:34:26.689Z,24.58
2023-01-19T04:36:56.100Z,21.88
2023-01-19T04:39:23.192Z,21.92
2023-01-19T04:41:51.825Z,22.35
2023-01-19T04:44:18.610Z,21.48
2023-01-19T04:46:45.785Z,22.88
2023-01-19T04:49:12.654Z,20.40
2023-01-19T04:51:39.726Z,21.05
2023-01-19T04:54:09.065Z,21.92
2023-01-19T04:56:36.740Z,20.73
2023-01-19T04:59:03.626Z,20.88
2023-01-19T05:01:30.847Z,21.70
2023-01-19T05:04:01.114Z,22.10
2023-01-19T05:06:28.207Z,22.00
2023-01-19T05:08:55.032Z,21.17
2023-01-19T05:11:22.148Z,20.27
2023-01-19T05:13:50.876Z,20.58
2023-01-19T05:16:18.192Z,20.83
2023-01-19T05:18:45.130Z,20.63
2023-01-19T05:21:12.268Z,21.73
2023-01-19T05:23:39.094Z,22.13
2023-01-19T05:26:06.302Z,19.13
2023-01-19T05:28:33.580Z,21.13
2023-01-19T05:31:01.085Z,21.40
2023-01-19T05:33:28.230Z,21.27
2023-01-19T05:35:55.628Z,20.85
2023-01-19T05:38:34.309Z,19.75
2023-01-19T05:41:02.561Z,19.58
2023-01-19T05:43:29.408Z,20.58
2023-01-19T05:45:56.497Z,20.42
2023-01-19T05:48:23.381Z,20.80
2023-01-19T05:50:51.720Z,20.23
2023-01-19T05:53:18.516Z,21.58
2023-01-19T05:55:45.621Z,21.70
2023-01-19T05:58:12.442Z,21.83
2023-01-19T06:00:39.575Z,21.17
2023-01-19T06:03:06.689Z,21.50
2023-01-19T06:05:34.137Z,21.23
2023-01-19T06:08:02.065Z,21.20
2023-01-19T06:10:29.263Z,21.55
2023-01-19T06:12:56.133Z,21.70
2023-01-19T06:15:23.202Z,20.75
2023-01-19T06:17:50.074Z,20.48
2023-01-19T06:20:17.456Z,21.88
2023-01-19T06:22:44.348Z,20.38
2023-01-19T06:25:12.014Z,20.88
2023-01-19T06:27:40.117Z,21.08
2023-01-19T06:30:08.015Z,22.10
2023-01-19T06:32:35.009Z,21.88
2023-01-19T06:35:02.304Z,21.48
2023-01-19T06:37:30.659Z,21.73
2023-01-19T06:39:57.700Z,22.30
2023-01-19T06:42:24.512Z,22.83
2023-01-19T06:44:51.828Z,20.98
2023-01-19T06:47:18.667Z,20.95
2023-01-19T06:49:45.861Z,21.30
2023-01-19T06:52:16.083Z,20.60
2023-01-19T06:54:46.704Z,23.63
2023-01-19T06:57:14.670Z,23.45
2023-01-19T06:59:41.982Z,24.10
2023-01-19T07:02:27.416Z,23.17
2023-01-19T07:04:56.803Z,23.92
2023-01-19T07:07:23.824Z,23.75
2023-01-19T07:09:53.750Z,22.05
2023-01-19T07:12:21.842Z,21.77
2023-01-19T07:14:49.767Z,21.63
2023-01-19T07:17:16.813Z,23.35
2023-01-19T07:19:43.974Z,23.67
2023-01-19T07:22:10.952Z,22.95
2023-01-19T07:24:38.368Z,22.88
2023-01-19T07:27:05.587Z,23.50
2023-01-19T07:29:32.973Z,22.35
2023-01-19T07:31:59.776Z,23.50
2023-01-19T07:34:27.025Z,22.27
2023-01-19T07:36:55.655Z,22.55
2023-01-19T07:39:22.777Z,22.50
2023-01-19T07:41:49.657Z,23.25
2023-01-19T07:44:17.047Z,23.98
2023-01-19T07:46:43.890Z,25.05
2023-01-19T07:49:11.741Z,24.65
2023-01-19T07:51:38.617Z,23.77
2023-01-19T07:54:05.783Z,24.85
2023-01-19T07:56:33.940Z,23.10
2023-01-19T07:59:01.610Z,23.67
2023-01-19T08:01:29.703Z,22.95
2023-01-19T08:03:56.881Z,22.15
2023-01-19T08:06:30.311Z,25.17
2023-01-19T08:08:57.463Z,24.90
2023-01-19T08:11:24.295Z,23.50
2023-01-19T08:13:51.445Z,23.45
2023-01-19T08:16:18.371Z,25.85
2023-01-19T08:18:45.549Z,24.45
2023-01-19T08:21:12.383Z,23.77
2023-01-19T08:23:39.572Z,24.90
2023-01-19T08:26:30.606Z,23.58
2023-01-19T08:28:59.910Z,23.95
2023-01-19T08:31:27.395Z,23.88
2023-01-19T08:33:55.122Z,24.92
2023-01-19T08:36:22.770Z,24.98
2023-01-19T08:38:50.059Z,24.77
2023-01-19T08:41:17.239Z,24.10
2023-01-19T08:43:47.777Z,23.42
2023-01-19T08:46:20.976Z,21.23
2023-01-19T08:48:51.050Z,21.77
2023-01-19T08:51:18.364Z,21.77
2023-01-19T08:53:45.610Z,20.50
2023-01-19T08:56:13.819Z,21.95
2023-01-19T08:58:43.144Z,20.20
2023-01-19T09:01:11.329Z,20.90
2023-01-19T09:03:38.479Z,19.63
2023-01-19T09:06:09.642Z,20.38
2023-01-19T09:08:36.965Z,17.73
2023-01-19T09:11:05.311Z,19.73
2023-01-19T09:13:32.426Z,18.73
2023-01-19T09:16:03.770Z,20.33
2023-01-19T09:20:57.947Z,15.52
2023-01-19T09:23:25.544Z,17.05
2023-01-19T09:25:57.765Z,19.35
2023-01-19T09:28:25.698Z,19.90
2023-01-19T09:30:52.808Z,19.65
2023-01-19T09:33:20.086Z,17.15
2023-01-19T09:35:48.662Z,18.95
2023-01-19T09:38:16.971Z,17.95
2023-01-19T09:40:56.026Z,19.02
2023-01-19T09:43:37.773Z,18.65
2023-01-19T09:46:33.696Z,18.58
2023-01-19T09:49:06.788Z,17.30
2023-01-19T09:51:41.330Z,16.83
2023-01-19T09:54:17.677Z,19.42
2023-01-19T09:56:52.126Z,17.58
2023-01-19T09:59:22.948Z,19.13
2023-01-19T10:02:20.827Z,17.17
2023-01-19T10:05:00.357Z,19.20
2023-01-19T10:07:39.120Z,19.23
2023-01-19T10:10:30.673Z,21.48
2023-01-19T10:13:24.661Z,42.00
2023-01-19T10:16:17.183Z,22.35
2023-01-19T10:18:47.944Z,19.23
2023-01-19T10:21:19.983Z,18.80
2023-01-19T10:24:01.514Z,18.67
2023-01-19T10:26:43.961Z,19.20
2023-01-19T10:29:21.286Z,18.33
2023-01-19T10:31:51.450Z,19.33
2023-01-19T10:34:22.998Z,17.98
2023-01-19T10:36:57.527Z,20.00
2023-01-19T10:39:24.665Z,17.92
2023-01-19T10:41:53.517Z,18.35
2023-01-19T10:44:36.724Z,18.70
2023-01-19T10:47:06.394Z,19.98
2023-01-19T10:49:43.023Z,20.00
2023-01-19T10:52:32.668Z,19.08
2023-01-19T10:55:02.435Z,19.15
2023-01-19T10:57:37.845Z,19.08
2023-01-19T11:00:07.429Z,19.20
2023-01-19T11:02:35.030Z,18.05
2023-01-19T11:05:26.354Z,16.92
2023-01-19T11:07:53.724Z,16.08
2023-01-19T11:10:24.147Z,16.05
2023-01-19T11:13:13.382Z,18.08
2023-01-19T11:15:59.761Z,17.33
2023-01-19T11:18:32.915Z,16.75
2023-01-19T11:21:06.600Z,18.08
2023-01-19T11:23:36.705Z,19.80
2023-01-19T11:26:05.915Z,18.23
2023-01-19T11:28:41.134Z,17.58
2023-01-19T11:31:11.640Z,18.70
2023-01-19T11:33:45.860Z,19.48
2023-01-19T11:36:24.935Z,17.80
2023-01-19T11:39:01.366Z,19.92
2023-01-19T11:41:35.568Z,19.10
2023-01-19T11:44:22.092Z,17.83
2023-01-19T11:46:56.393Z,17.52
2023-01-19T11:49:43.457Z,17.80
2023-01-19T11:52:35.196Z,17.60
2023-01-19T11:55:38.723Z,18.08
2023-01-19T11:58:06.163Z,16.98
2023-01-19T12:00:35.674Z,16.88
2023-01-19T12:03:13.279Z,14.82
2023-01-19T12:05:47.984Z,15.40
2023-01-19T12:08:22.781Z,15.65
2023-01-19T12:10:53.009Z,16.25
2023-01-19T12:13:25.400Z,17.65
2023-01-19T12:15:58.558Z,15.73
2023-01-19T12:18:33.366Z,15.70
2023-01-19T12:21:03.696Z,16.77
2023-01-19T12:23:40.125Z,24.25
2023-01-19T12:26:16.457Z,20.42
2023-01-19T12:28:48.917Z,14.40
2023-01-19T12:31:18.448Z,13.25
2023-01-19T12:33:45.596Z,15.52
2023-01-19T12:36:32.275Z,14.88
2023-01-19T12:39:04.551Z,13.70
2023-01-19T12:41:36.514Z,14.23
2023-01-19T12:44:12.531Z,17.73
2023-01-19T12:46:50.799Z,12.30
2023-01-19T12:49:44.035Z,13.73
2023-01-19T12:52:49.464Z,13.18
2023-01-19T12:55:34.835Z,15.60
2023-01-19T12:58:07.162Z,12.82
2023-01-19T13:00:39.936Z,14.18
2023-01-19T13:03:16.613Z,13.52
2023-01-19T13:05:43.599Z,13.15
2023-01-19T13:08:11.471Z,13.65
2023-01-19T13:11:00.222Z,14.82
2023-01-19T13:13:37.308Z,14.02
2023-01-19T13:16:19.822Z,15.27
2023-01-19T13:18:57.198Z,18.58
2023-01-19T13:21:31.090Z,13.75
2023-01-19T13:24:10.560Z,16.52
2023-01-19T13:26:40.185Z,14.40
2023-01-19T13:29:13.699Z,15.57
2023-01-19T13:31:44.711Z,15.93
2023-01-19T13:34:18.407Z,14.95
2023-01-19T13:36:49.903Z,15.50
2023-01-19T13:39:19.860Z,16.27
2023-01-19T13:41:47.651Z,13.27
2023-01-19T13:44:21.011Z,12.93
2023-01-19T13:46:48.698Z,13.93
2023-01-19T13:49:37.071Z,14.30
2023-01-19T13:52:14.669Z,12.90
2023-01-19T13:55:03.009Z,12.85
2023-01-19T13:57:39.559Z,13.43
2023-01-19T14:00:12.448Z,14.52
2023-01-19T14:03:17.862Z,14.35
2023-01-19T14:05:45.161Z,13.13
2023-01-19T14:08:13.507Z,13.75
2023-01-19T14:10:47.367Z,13.13
2023-01-19T14:13:29.543Z,13.05
2023-01-19T14:16:04.438Z,14.52
2023-01-19T14:18:33.969Z,15.80
2023-01-19T14:21:08.488Z,12.65
2023-01-19T14:23:45.746Z,14.73
2023-01-19T14:26:38.085Z,12.93
2023-01-19T14:29:29.618Z,13.15
2023-01-19T14:32:15.309Z,13.68
2023-01-19T14:35:04.528Z,15.43
2023-01-19T14:37:33.295Z,12.82
2023-01-19T14:40:17.585Z,13.68
2023-01-19T14:42:44.707Z,12.55
2023-01-19T14:45:21.401Z,13.20
2023-01-19T14:47:59.694Z,12.90
2023-01-19T14:50:34.324Z,12.38
2023-01-19T14:53:07.704Z,12.52
2023-01-19T14:55:54.541Z,12.95
2023-01-19T14:58:24.636Z,12.98
2023-01-19T15:00:55.727Z,13.10
2023-01-19T15:03:34.873Z,13.20
2023-01-19T15:06:17.308Z,13.18
2023-01-19T15:08:45.693Z,13.70
2023-01-19T15:11:16.038Z,13.75
2023-01-19T15:13:45.074Z,14.20
2023-01-19T15:16:12.251Z,14.10
2023-01-19T15:18:39.589Z,14.23
2023-01-19T15:21:06.538Z,14.98
2023-01-19T15:23:33.743Z,13.80
2023-01-19T15:26:03.673Z,14.65
2023-01-19T15:28:31.745Z,15.00
2023-01-19T15:30:59.920Z,14.43
2023-01-19T15:33:31.917Z,16.02
2023-01-19T15:35:59.147Z,15.13
2023-01-19T15:38:26.647Z,17.40
2023-01-19T15:40:53.644Z,15.25
2023-01-19T15:43:21.478Z,16.67
2023-01-19T15:45:51.608Z,16.40
2023-01-19T15:48:20.058Z,16.35
2023-01-19T15:50:47.898Z,15.80
2023-01-19T15:53:20.469Z,16.88
2023-01-19T15:55:52.435Z,16.48
2023-01-19T15:58:20.815Z,17.27
2023-01-19T16:00:55.858Z,17.55
2023-01-19T16:03:23.949Z,17.23
2023-01-19T16:05:50.785Z,15.38
2023-01-19T16:08:18.384Z,16.65
2023-01-19T16:10:45.373Z,15.55
2023-01-19T16:13:12.638Z,16.65
2023-01-19T16:15:42.449Z,17.38
2023-01-19T16:18:09.592Z,17.10
2023-01-19T16:20:36.618Z,19.63
2023-01-19T16:23:19.327Z,16.73
2023-01-19T16:26:07.918Z,19.40
2023-01-19T16:28:37.490Z,21.25
2023-01-19T16:31:04.858Z,16.40
2023-01-19T16:33:32.058Z,15.88
2023-01-19T16:35:58.871Z,17.10
2023-01-19T16:38:26.191Z,15.38
2023-01-19T16:40:53.253Z,15.85
2023-01-19T16:43:20.415Z,19.20
2023-01-19T16:46:01.953Z,14.70
2023-01-19T16:48:29.286Z,16.52
2023-01-19T16:51:00.036Z,14.05
2023-01-19T16:53:28.224Z,16.25
2023-01-19T16:55:55.094Z,15.95
2023-01-19T16:58:22.348Z,16.50
2023-01-19T17:00:49.548Z,16.30
2023-01-19T17:03:16.785Z,15.82
2023-01-19T17:05:49.530Z,16.35
2023-01-19T17:08:19.006Z,16.88
2023-01-19T17:10:46.889Z,16.33
2023-01-19T17:13:14.090Z,17.92
2023-01-19T17:15:41.043Z,19.00
2023-01-19T17:18:10.194Z,16.25
2023-01-19T17:20:37.373Z,17.85
2023-01-19T17:23:04.553Z,14.70
2023-01-19T17:25:31.589Z,16.33
2023-01-19T17:28:01.389Z,18.25
2023-01-19T17:30:28.366Z,17.35
2023-01-19T17:32:55.674Z,17.33
2023-01-19T17:35:22.664Z,16.15
2023-01-19T17:37:53.700Z,16.00
2023-01-19T17:40:20.659Z,16.85
2023-01-19T17:42:48.172Z,15.77
2023-01-19T17:45:15.212Z,17.40
2023-01-19T17:47:42.808Z,15.38
2023-01-19T17:50:10.468Z,16.23
2023-01-19T17:52:38.313Z,16.75
2023-01-19T17:55:05.677Z,16.90
2023-01-19T17:57:32.947Z,16.58
2023-01-19T17:59:59.942Z,15.45
2023-01-19T18:02:27.186Z,14.07
2023-01-19T18:04:54.084Z,16.10
2023-01-19T18:07:21.160Z,15.48
2023-01-19T18:09:48.290Z,15.05
2023-01-19T18:12:16.131Z,16.60
2023-01-19T18:14:43.093Z,15.27
2023-01-19T18:17:10.177Z,15.27
2023-01-19T18:19:39.133Z,16.65
2023-01-19T18:22:06.266Z,15.20
2023-01-19T18:24:33.133Z,14.13
2023-01-19T18:27:00.599Z,15.88
2023-01-19T18:29:27.866Z,14.13
2023-01-19T18:31:55.017Z,13.52
2023-01-19T18:34:21.982Z,15.07
2023-01-19T18:36:49.208Z,13.93
2023-01-19T18:39:16.966Z,14.05
2023-01-19T18:41:45.158Z,16.00
2023-01-19T18:44:12.636Z,13.32
2023-01-19T18:46:57.149Z,14.18
2023-01-19T18:49:24.256Z,13.02
2023-01-19T18:51:52.261Z,14.10
2023-01-19T18:54:20.576Z,14.45
2023-01-19T18:56:50.234Z,13.95
2023-01-19T18:59:17.454Z,14.88
2023-01-19T19:01:44.896Z,15.00
2023-01-19T19:04:13.049Z,13.85
2023-01-19T19:06:40.172Z,14.18
2023-01-19T19:09:07.061Z,15.68
2023-01-19T19:11:34.608Z,12.32
2023-01-19T19:14:02.609Z,15.10
2023-01-19T19:16:31.616Z,12.98
2023-01-19T19:18:59.641Z,12.98
2023-01-19T19:21:27.327Z,12.82
2023-01-19T19:23:58.063Z,14.10
2023-01-19T19:26:28.180Z,16.00
2023-01-19T19:28:55.969Z,16.27
2023-01-19T19:31:26.228Z,16.55
2023-01-19T19:33:54.087Z,17.92
2023-01-19T19:36:22.705Z,18.30
2023-01-19T19:38:50.133Z,17.45
2023-01-19T19:41:21.696Z,14.93
2023-01-19T19:43:48.600Z,14.68
2023-01-19T19:46:20.125Z,15.77
2023-01-19T19:48:48.436Z,14.88
2023-01-19T19:51:19.597Z,15.13
2023-01-19T19:53:50.212Z,14.55
2023-01-19T19:56:21.758Z,15.30
2023-01-19T19:58:49.790Z,15.07
2023-01-19T20:01:20.230Z,16.85
2023-01-19T20:03:47.569Z,16.48
2023-01-19T20:06:21.438Z,19.45
2023-01-19T20:08:53.423Z,21.63
2023-01-19T20:11:26.899Z,19.30
2023-01-19T20:13:54.092Z,20.90
2023-01-19T20:16:23.345Z,20.73
2023-01-19T20:18:54.314Z,24.10
2023-01-19T20:21:25.776Z,21.20
2023-01-19T20:23:53.558Z,23.05
2023-01-19T20:26:25.137Z,22.13
2023-01-19T20:28:53.185Z,23.80
2023-01-19T20:31:23.800Z,21.85
2023-01-19T20:33:53.743Z,22.80
2023-01-19T20:36:24.255Z,21.33
2023-01-19T20:38:52.618Z,23.23
2023-01-19T20:41:21.133Z,23.23
2023-01-19T20:43:48.393Z,17.40
2023-01-19T20:46:15.647Z,21.83
2023-01-19T20:48:42.778Z,20.63
2023-01-19T20:51:12.729Z,20.75
2023-01-19T20:53:41.087Z,21.17
2023-01-19T20:56:12.096Z,22.55
2023-01-19T20:58:39.484Z,21.00
2023-01-19T21:01:15.172Z,20.55
2023-01-19T21:03:42.664Z,19.77
2023-01-19T21:06:10.747Z,18.27
2023-01-19T21:08:37.707Z,19.60
2023-01-19T21:11:05.711Z,20.60
2023-01-19T21:13:33.554Z,19.15
2023-01-19T21:16:01.136Z,19.65
2023-01-19T21:18:28.595Z,25.20
2023-01-19T21:20:57.577Z,22.95
2023-01-19T21:23:26.012Z,25.88
2023-01-19T21:25:55.368Z,22.67
2023-01-19T21:28:25.482Z,21.15
2023-01-19T21:30:53.988Z,19.23
2023-01-19T21:33:21.939Z,18.30
2023-01-19T21:35:54.452Z,16.40
2023-01-19T21:38:22.779Z,15.48
2023-01-19T21:40:52.953Z,16.65
2023-01-19T21:43:20.601Z,15.15
2023-01-19T21:45:48.565Z,15.35
2023-01-19T21:48:16.842Z,16.67
2023-01-19T21:50:44.021Z,16.50
2023-01-19T21:53:11.525Z,17.40
2023-01-19T21:55:42.987Z,15.55
2023-01-19T21:58:09.839Z,15.30
2023-01-19T22:00:36.986Z,16.02
2023-01-19T22:03:04.826Z,15.15
2023-01-19T22:05:36.927Z,14.77
2023-01-19T22:10:31.712Z,16.88
2023-01-19T22:12:58.602Z,17.33
2023-01-19T22:15:25.792Z,15.95
2023-01-19T22:17:52.636Z,18.05
2023-01-19T22:20:19.867Z,15.32
2023-01-19T22:22:46.686Z,15.45
2023-01-19T22:25:15.133Z,14.75
2023-01-19T22:27:42.328Z,14.35
2023-01-19T22:30:10.064Z,14.88
2023-01-19T22:32:36.908Z,14.63
2023-01-19T22:35:04.251Z,14.98
2023-01-19T22:37:35.477Z,14.48
2023-01-19T22:40:03.782Z,15.70
2023-01-19T22:42:30.683Z,13.93
2023-01-19T22:44:58.000Z,14.68
2023-01-19T22:47:24.842Z,13.55
2023-01-19T22:49:51.911Z,14.27
2023-01-19T22:52:18.945Z,12.55
2023-01-19T22:54:45.981Z,12.32
2023-01-19T22:57:12.760Z,12.70
2023-01-19T22:59:39.861Z,12.65
2023-01-19T23:02:06.865Z,12.10
2023-01-19T23:04:34.084Z,12.07
2023-01-19T23:07:00.873Z,12.52
2023-01-19T23:09:28.231Z,12.27
2023-01-19T23:11:55.128Z,11.43
2023-01-19T23:14:22.481Z,12.40
2023-01-19T23:16:49.756Z,12.73
2023-01-19T23:19:17.379Z,11.10
2023-01-19T23:21:45.477Z,10.80
2023-01-19T23:24:12.726Z,10.73
2023-01-19T23:26:39.764Z,11.95
2023-01-19T23:29:12.155Z,12.20
2023-01-19T23:31:44.306Z,11.13
2023-01-19T23:34:12.442Z,12.15
2023-01-19T23:36:40.672Z,11.90
2023-01-19T23:39:13.436Z,11.38
2023-01-19T23:41:40.391Z,11.60
2023-01-19T23:44:07.801Z,13.52
2023-01-19T23:46:34.787Z,12.88
2023-01-19T23:49:01.926Z,13.35
2023-01-19T23:51:30.992Z,13.57
2023-01-19T23:53:58.941Z,13.40
2023-01-19T23:56:31.892Z,15.25
2023-01-19T23:59:16.943Z,15.77
